Time;durP1;ratioP1;P1;durP2;ratioP2;P2;SDS_P1;SDS_P2;PMS_P1;PMS_P2;Temp;Humidity;BMP_temperature;BMP_pressure;BME280_temperature;BME280_humidity;BME280_pressure;Samples;Min_cycle;Max_cycle;Signal;HPM_P1;HPM_P2
2023/05/21 00:02:17;;;;;;;6.55;3.80;;;;;;;11.97;100.00;101703.53;4996959;28;20393;-92
2023/05/21 00:04:46;;;;;;;7.07;3.78;;;;;;;11.93;100.00;101705.91;4997085;28;20026;-92
2023/05/21 00:07:12;;;;;;;6.00;3.73;;;;;;;11.92;100.00;101701.59;5014260;28;20028;-93
2023/05/21 00:09:37;;;;;;;4.30;3.80;;;;;;;11.84;100.00;101698.50;4996701;28;20777;-92
2023/05/21 00:12:09;;;;;;;7.65;4.70;;;;;;;11.86;100.00;101699.91;5013731;28;20041;-92
2023/05/21 00:14:35;;;;;;;8.40;4.32;;;;;;;11.82;100.00;101698.75;5014401;28;20477;-91
2023/05/21 00:17:00;;;;;;;5.30;4.17;;;;;;;11.78;100.00;101684.19;5014334;28;20079;-91
2023/05/21 00:19:26;;;;;;;6.15;4.20;;;;;;;11.72;100.00;101686.00;5014209;28;20029;-91
2023/05/21 00:21:51;;;;;;;5.60;3.83;;;;;;;11.69;100.00;101681.09;5014234;28;20026;-91
2023/05/21 00:24:17;;;;;;;5.85;4.10;;;;;;;11.69;100.00;101696.38;4997132;28;20114;-92
2023/05/21 00:26:42;;;;;;;4.90;4.13;;;;;;;11.60;100.00;101688.75;5013814;28;20041;-91
2023/05/21 00:29:07;;;;;;;4.97;4.07;;;;;;;11.63;100.00;101685.59;5014308;28;20231;-91
2023/05/21 00:31:33;;;;;;;7.00;3.70;;;;;;;11.54;100.00;101683.53;5014174;28;20029;-91
2023/05/21 00:33:58;;;;;;;7.07;5.13;;;;;;;11.54;100.00;101689.72;5014456;28;20037;-91
2023/05/21 00:36:24;;;;;;;5.72;4.32;;;;;;;11.51;100.00;101687.50;5013909;28;20021;-92
2023/05/21 00:38:50;;;;;;;7.27;4.43;;;;;;;11.49;100.00;101686.97;5013913;28;20045;-92
2023/05/21 00:41:18;;;;;;;4.97;4.32;;;;;;;11.46;100.00;101688.25;5013920;28;20052;-92
2023/05/21 00:43:43;;;;;;;8.95;4.63;;;;;;;11.40;100.00;101685.72;5013679;28;20026;-92
2023/05/21 00:46:18;;;;;;;9.80;5.13;;;;;;;11.39;100.00;101684.09;5013434;28;20022;-91
2023/05/21 00:48:45;;;;;;;7.75;5.65;;;;;;;11.36;100.00;101683.50;5013600;28;20385;-92
2023/05/21 00:51:11;;;;;;;9.75;7.13;;;;;;;11.32;100.00;101668.16;5014673;28;20022;-91
2023/05/21 00:53:36;;;;;;;11.07;7.53;;;;;;;11.32;100.00;101682.34;5022955;28;20026;-90
2023/05/21 00:56:02;;;;;;;13.70;8.53;;;;;;;11.31;100.00;101671.88;5023874;28;20676;-90
2023/05/21 00:58:28;;;;;;;16.80;11.60;;;;;;;11.24;100.00;101669.34;5026843;28;20057;-92
2023/05/21 01:00:55;;;;;;;23.52;11.95;;;;;;;11.25;100.00;101675.53;5017596;28;20026;-91
2023/05/21 01:03:22;;;;;;;20.45;13.25;;;;;;;11.28;100.00;101681.25;4997827;28;20037;-91
2023/05/21 01:05:51;;;;;;;17.95;12.05;;;;;;;11.29;100.00;101674.00;5012528;28;20026;-91
2023/05/21 01:08:19;;;;;;;16.75;11.63;;;;;;;11.25;100.00;101671.00;5012387;28;20531;-92
2023/05/21 01:10:44;;;;;;;16.65;10.52;;;;;;;11.19;100.00;101669.25;5012055;28;20026;-93
2023/05/21 01:13:10;;;;;;;14.23;10.07;;;;;;;11.18;100.00;101670.31;5012174;28;20029;-92
2023/05/21 01:15:37;;;;;;;12.17;8.83;;;;;;;11.13;100.00;101667.56;5011933;28;20156;-92
2023/05/21 01:18:02;;;;;;;10.98;7.82;;;;;;;11.14;100.00;101669.16;5012543;28;20026;-92
2023/05/21 01:20:30;;;;;;;9.90;7.57;;;;;;;11.13;100.00;101670.25;5011762;28;20045;-92
2023/05/21 01:22:57;;;;;;;9.73;6.78;;;;;;;11.09;100.00;101677.94;5012412;28;20068;-92
2023/05/21 01:25:22;;;;;;;9.43;6.05;;;;;;;11.09;100.00;101661.84;5011953;28;20026;-92
2023/05/21 01:27:49;;;;;;;7.70;5.90;;;;;;;11.06;100.00;101671.19;5016966;28;20052;-91
2023/05/21 01:30:17;;;;;;;10.10;6.13;;;;;;;11.05;100.00;101666.88;5022381;28;20564;-91
2023/05/21 01:33:02;;;;;;;6.97;5.07;;;;;;;11.01;100.00;101664.94;5006345;28;20025;-92
2023/05/21 01:35:36;;;;;;;8.23;5.32;;;;;;;10.99;100.00;101667.03;5023074;28;20037;-93
2023/05/21 01:38:33;;;;;;;6.63;5.25;;;;;;;11.02;100.00;101667.34;5019221;28;20069;-93
2023/05/21 01:41:03;;;;;;;6.47;4.97;;;;;;;11.00;100.00;101664.09;5013967;28;20137;-92
2023/05/21 01:43:32;;;;;;;7.53;4.80;;;;;;;11.09;100.00;101667.19;5012231;28;20103;-92
2023/05/21 01:45:59;;;;;;;5.30;4.57;;;;;;;11.07;100.00;101658.59;5011535;28;20555;-92
2023/05/21 01:48:28;;;;;;;9.07;5.30;;;;;;;11.13;100.00;101662.19;5011653;28;20060;-92
2023/05/21 01:50:54;;;;;;;7.60;4.93;;;;;;;11.18;100.00;101664.94;5011964;28;20359;-92
2023/05/21 01:53:21;;;;;;;8.25;4.40;;;;;;;11.20;100.00;101658.31;5011777;28;20490;-91
2023/05/21 01:55:47;;;;;;;8.52;4.63;;;;;;;11.22;100.00;101660.72;5011387;28;20076;-91
2023/05/21 01:58:12;;;;;;;6.80;4.50;;;;;;;11.25;100.00;101654.88;5011794;28;20026;-91
2023/05/21 02:00:39;;;;;;;6.57;4.70;;;;;;;11.23;100.00;101657.00;5011885;28;20026;-92
2023/05/21 02:03:04;;;;;;;9.27;4.50;;;;;;;11.29;100.00;101658.72;5011860;28;20297;-91
2023/05/21 02:05:30;;;;;;;5.53;4.47;;;;;;;11.32;100.00;101660.91;5011412;28;20026;-91
2023/05/21 02:07:55;;;;;;;7.00;4.20;;;;;;;11.31;100.00;101661.97;5011789;28;20061;-92
2023/05/21 02:10:21;;;;;;;6.28;4.03;;;;;;;11.25;100.00;101640.66;4993732;28;20113;-92
2023/05/21 02:12:46;;;;;;;5.63;4.33;;;;;;;11.19;100.00;101643.25;5011491;28;20030;-91
2023/05/21 02:15:16;;;;;;;5.17;4.03;;;;;;;11.22;100.00;101650.00;5010884;28;20617;-92
2023/05/21 02:17:43;;;;;;;5.03;4.30;;;;;;;11.16;100.00;101641.06;5011594;28;20026;-92
2023/05/21 02:20:11;;;;;;;5.40;3.92;;;;;;;11.19;100.00;101656.69;5011596;28;20030;-92
2023/05/21 02:22:41;;;;;;;5.63;4.45;;;;;;;11.31;100.00;101659.28;5011347;28;20025;-92
2023/05/21 02:25:08;;;;;;;7.22;4.35;;;;;;;11.33;100.00;101648.31;5011285;28;20034;-92
2023/05/21 02:27:35;;;;;;;5.65;4.20;;;;;;;11.42;100.00;101643.34;4993853;28;20462;-92
2023/05/21 02:30:02;;;;;;;7.85;4.32;;;;;;;11.48;100.00;101642.38;5010941;28;20080;-92
2023/05/21 02:32:27;;;;;;;6.50;4.60;;;;;;;11.54;100.00;101644.09;5011439;28;20092;-92
2023/05/21 02:34:53;;;;;;;9.97;4.70;;;;;;;11.56;100.00;101639.28;5009966;28;20054;-92
2023/05/21 02:37:18;;;;;;;5.50;4.63;;;;;;;11.64;100.00;101644.25;4992835;28;20056;-91
2023/05/21 02:39:44;;;;;;;5.90;4.70;;;;;;;11.74;100.00;101658.88;5011232;28;20029;-92
2023/05/21 02:42:09;;;;;;;5.80;4.50;;;;;;;11.75;100.00;101642.53;5011462;28;20022;-92
2023/05/21 02:44:35;;;;;;;6.20;4.73;;;;;;;11.81;100.00;101648.78;5011253;28;20469;-92
2023/05/21 02:47:00;;;;;;;5.15;4.40;;;;;;;11.80;100.00;101639.13;5010600;28;20026;-91
2023/05/21 02:49:25;;;;;;;5.67;4.40;;;;;;;11.84;100.00;101645.63;5011055;28;20018;-91
2023/05/21 02:51:51;;;;;;;7.30;4.50;;;;;;;11.86;100.00;101640.00;5010894;28;20488;-92
2023/05/21 02:54:16;;;;;;;5.97;4.27;;;;;;;11.86;100.00;101638.13;5011076;28;20037;-91
2023/05/21 02:56:41;;;;;;;8.00;4.50;;;;;;;11.89;100.00;101637.63;5010824;28;20018;-92
2023/05/21 02:59:06;;;;;;;5.90;4.17;;;;;;;11.88;100.00;101630.63;5011107;28;20698;-92
2023/05/21 03:01:32;;;;;;;6.33;4.30;;;;;;;11.91;100.00;101627.44;5011008;28;20038;-91
2023/05/21 03:03:57;;;;;;;5.32;4.32;;;;;;;11.90;100.00;101631.19;4993561;28;20034;-91
2023/05/21 03:06:22;;;;;;;6.60;4.20;;;;;;;11.90;100.00;101631.19;5010653;28;20120;-92
2023/05/21 03:08:48;;;;;;;6.63;4.73;;;;;;;11.93;100.00;101630.69;5010676;28;20685;-92
2023/05/21 03:11:13;;;;;;;5.80;4.27;;;;;;;11.92;100.00;101628.28;4993239;28;20034;-92
2023/05/21 03:13:39;;;;;;;4.73;4.13;;;;;;;11.94;100.00;101621.59;5010997;28;20477;-91
2023/05/21 03:16:04;;;;;;;7.15;4.40;;;;;;;11.92;100.00;101623.72;5010611;28;20525;-92
2023/05/21 03:18:30;;;;;;;5.50;4.13;;;;;;;11.89;100.00;101610.78;5010828;28;20026;-93
2023/05/21 03:20:57;;;;;;;5.67;4.77;;;;;;;11.93;100.00;101619.16;5010899;28;20022;-92
2023/05/21 03:23:23;;;;;;;4.32;3.92;;;;;;;11.88;100.00;101609.13;4992970;28;20057;-92
2023/05/21 03:25:49;;;;;;;6.40;4.68;;;;;;;11.92;100.00;101620.22;5010351;28;20065;-92
2023/05/21 03:28:16;;;;;;;7.57;4.67;;;;;;;11.92;100.00;101615.66;5010555;28;20026;-92
2023/05/21 03:30:45;;;;;;;10.02;4.55;;;;;;;11.87;100.00;101610.19;5010588;28;20125;-94
2023/05/21 03:33:12;;;;;;;5.88;4.53;;;;;;;11.86;100.00;101616.66;5010445;28;20034;-92
2023/05/21 03:35:38;;;;;;;6.32;4.63;;;;;;;11.81;100.00;101614.69;5012844;28;20545;-93
2023/05/21 03:38:03;;;;;;;4.90;4.30;;;;;;;11.74;100.00;101603.31;5014273;28;20030;-93
2023/05/21 03:40:28;;;;;;;5.90;4.57;;;;;;;11.76;100.00;101613.81;5014091;28;20088;-93
2023/05/21 03:42:54;;;;;;;7.63;4.75;;;;;;;11.68;100.00;101606.19;5014054;28;20033;-93
2023/05/21 03:45:19;;;;;;;4.80;4.37;;;;;;;11.66;100.00;101612.63;5013596;28;20116;-93
2023/05/21 03:47:44;;;;;;;6.17;4.83;;;;;;;11.63;100.00;101618.47;5014344;28;20045;-92
2023/05/21 03:50:10;;;;;;;6.67;4.63;;;;;;;11.61;100.00;101614.38;5014101;28;20030;-92
2023/05/21 03:52:35;;;;;;;7.23;4.63;;;;;;;11.61;100.00;101607.16;5014287;28;20029;-92
2023/05/21 03:55:00;;;;;;;7.37;4.70;;;;;;;11.63;100.00;101618.47;5013438;28;20050;-93
2023/05/21 03:57:26;;;;;;;5.80;4.50;;;;;;;11.61;100.00;101619.75;5013866;28;20292;-92
2023/05/21 03:59:52;;;;;;;8.45;4.97;;;;;;;11.62;100.00;101622.22;5013582;28;20501;-93
2023/05/21 04:02:17;;;;;;;6.33;4.63;;;;;;;11.59;100.00;101617.31;4996232;28;20088;-92
2023/05/21 04:04:44;;;;;;;7.73;4.87;;;;;;;11.61;100.00;101604.47;5013715;28;20411;-91
2023/05/21 04:07:13;;;;;;;6.13;4.93;;;;;;;11.62;100.00;101614.16;5013016;28;20022;-91
2023/05/21 04:09:39;;;;;;;6.82;5.30;;;;;;;11.66;100.00;101611.78;5013565;28;20109;-90
2023/05/21 04:12:13;;;;;;;8.57;4.85;;;;;;;11.66;100.00;101617.16;5013471;28;20474;-91
2023/05/21 04:14:42;;;;;;;9.68;5.03;;;;;;;11.65;100.00;101613.66;5012889;28;20053;-91
2023/05/21 04:17:28;;;;;;;7.37;4.60;;;;;;;11.51;100.00;101590.88;5013069;28;20355;-92
2023/05/21 04:19:56;;;;;;;8.73;5.00;;;;;;;11.56;100.00;101593.66;5012481;28;20364;-91
2023/05/21 04:22:25;;;;;;;6.55;4.78;;;;;;;11.69;100.00;101610.47;4995809;28;20020;-91
2023/05/21 04:24:51;;;;;;;8.45;5.30;;;;;;;11.73;100.00;101611.59;5013327;28;20168;-91
2023/05/21 04:27:23;;;;;;;5.43;4.88;;;;;;;11.66;100.00;101604.56;5013238;28;20495;-91
2023/05/21 04:30:10;;;;;;;7.03;5.40;;;;;;;11.69;100.00;101597.88;4995078;28;20030;-91
2023/05/21 04:32:35;;;;;;;9.32;5.45;;;;;;;11.77;100.00;101615.44;5012694;28;20485;-91
2023/05/21 04:35:00;;;;;;;7.30;5.30;;;;;;;11.91;100.00;101634.72;5012439;28;20034;-92
2023/05/21 04:37:35;;;;;;;6.90;4.93;;;;;;;11.87;100.00;101607.50;5013399;28;20022;-91
2023/05/21 04:40:01;;;;;;;8.80;5.43;;;;;;;12.06;100.00;101628.75;5012680;28;20026;-91
2023/05/21 04:42:26;;;;;;;7.07;5.33;;;;;;;11.94;100.00;101608.16;5013142;28;20024;-91
2023/05/21 04:44:54;;;;;;;8.97;4.93;;;;;;;12.11;100.00;101628.81;5012738;28;20277;-91
2023/05/21 04:47:20;;;;;;;6.68;5.00;;;;;;;12.15;100.00;101621.91;4990602;28;20037;-91
2023/05/21 04:49:49;;;;;;;7.00;5.07;;;;;;;12.23;100.00;101637.56;4995283;28;20600;-91
2023/05/21 04:52:15;;;;;;;8.20;5.00;;;;;;;12.23;100.00;101621.44;5013294;28;20420;-91
2023/05/21 04:54:41;;;;;;;7.28;5.38;;;;;;;12.32;100.00;101634.47;5013541;28;20156;-91
2023/05/21 04:57:07;;;;;;;7.00;5.07;;;;;;;12.35;100.00;101642.84;5013302;28;20022;-91
2023/05/21 04:59:42;;;;;;;10.77;5.47;;;;;;;12.23;100.00;101626.03;5021712;28;20060;-90
2023/05/21 05:02:07;;;;;;;7.03;5.03;;;;;;;12.24;100.00;101612.31;5033360;28;20018;-91
2023/05/21 05:04:42;;;;;;;7.10;5.05;;;;;;;12.26;100.00;101615.59;5033915;28;20024;-91
2023/05/21 05:07:08;;;;;;;7.33;5.37;;;;;;;12.40;100.00;101628.66;5013291;28;20006;-90
2023/05/21 05:09:34;;;;;;;5.78;4.82;;;;;;;12.38;100.00;101622.72;5033328;28;20061;-91
2023/05/21 05:12:06;;;;;;;6.53;5.20;;;;;;;12.38;100.00;101617.34;5016554;28;20041;-91
2023/05/21 05:14:31;;;;;;;8.50;5.80;;;;;;;12.44;100.00;101615.53;5016676;28;20026;-91
2023/05/21 05:16:59;;;;;;;6.53;5.10;;;;;;;12.47;100.00;101615.84;5012514;28;20068;-91
2023/05/21 05:19:27;;;;;;;7.67;5.60;;;;;;;12.55;100.00;101622.63;4995190;28;20374;-91
2023/05/21 05:22:01;;;;;;;7.32;5.55;;;;;;;12.62;100.00;101617.06;5015686;28;20085;-91
2023/05/21 05:24:30;;;;;;;7.35;5.60;;;;;;;12.70;100.00;101620.13;5000837;28;20045;-92
2023/05/21 05:26:59;;;;;;;7.40;5.70;;;;;;;12.75;100.00;101610.47;5014480;28;20022;-91
2023/05/21 05:29:24;;;;;;;11.90;5.75;;;;;;;12.92;100.00;101621.16;4980610;23;20051;-90
2023/05/21 05:31:55;;;;;;;10.50;5.83;;;;;;;12.95;100.00;101615.28;4954019;28;20114;-91
2023/05/21 05:34:23;;;;;;;8.57;5.93;;;;;;;12.95;100.00;101597.25;4953854;28;20059;-91
2023/05/21 05:36:48;;;;;;;7.97;6.05;;;;;;;13.14;100.00;101621.09;4953505;28;20031;-91
2023/05/21 05:39:17;;;;;;;7.33;5.90;;;;;;;13.15;100.00;101614.63;4953541;28;20033;-91
2023/05/21 05:41:45;;;;;;;8.50;5.97;;;;;;;13.18;100.00;101604.16;4953609;28;20038;-91
2023/05/21 05:44:10;;;;;;;7.57;5.95;;;;;;;13.29;100.00;101602.38;4936443;29;20115;-91
2023/05/21 05:46:45;;;;;;;7.90;6.03;;;;;;;13.54;100.00;101638.69;4953234;28;20383;-91
2023/05/21 05:49:10;;;;;;;7.93;5.90;;;;;;;13.53;100.00;101617.38;4953388;29;20027;-91
2023/05/21 05:51:59;;;;;;;10.07;6.17;;;;;;;13.65;100.00;101612.63;4920100;29;20039;-91
2023/05/21 05:54:34;;;;;;;9.35;5.93;;;;;;;13.75;100.00;101610.00;4945623;29;20066;-91
2023/05/21 05:56:59;;;;;;;7.50;6.43;;;;;;;13.83;100.00;101611.38;4952965;28;20395;-91
2023/05/21 05:59:25;;;;;;;9.17;5.93;;;;;;;14.06;100.00;101634.41;4953184;28;20034;-92
2023/05/21 06:01:53;;;;;;;9.15;6.28;;;;;;;14.14;100.00;101625.03;4953517;29;20023;-91
2023/05/21 06:04:28;;;;;;;7.77;6.33;;;;;;;14.22;100.00;101624.53;4953170;28;20019;-92
2023/05/21 06:06:54;;;;;;;8.30;6.07;;;;;;;14.47;100.00;101638.34;4952806;28;20365;-91
2023/05/21 06:09:30;;;;;;;7.90;5.85;;;;;;;14.61;100.00;101634.09;4953095;28;20052;-91
2023/05/21 06:11:58;;;;;;;8.68;6.80;;;;;;;14.75;100.00;101620.94;4953239;29;20023;-92
2023/05/21 06:14:24;;;;;;;9.95;6.75;;;;;;;15.08;99.26;101647.72;4952942;28;20054;-91
2023/05/21 06:17:01;;;;;;;9.10;6.00;;;;;;;15.01;98.19;101615.59;4952797;29;20466;-91
2023/05/21 06:19:27;;;;;;;10.55;6.32;;;;;;;15.13;97.58;101615.34;4935577;29;20055;-91
2023/05/21 06:21:53;;;;;;;8.20;5.80;;;;;;;15.34;96.55;101626.94;4931190;29;20584;-92
2023/05/21 06:24:18;;;;;;;7.60;6.40;;;;;;;15.52;96.05;101630.97;4935745;29;20031;-92
2023/05/21 06:26:47;;;;;;;9.27;6.23;;;;;;;15.60;94.05;101618.84;4952648;29;20491;-92
2023/05/21 06:29:12;;;;;;;8.98;5.68;;;;;;;15.82;94.77;101632.03;4943659;28;20118;-92
2023/05/21 06:31:37;;;;;;;7.10;6.23;;;;;;;15.71;92.96;101614.19;4952451;28;20357;-92
2023/05/21 06:34:03;;;;;;;10.33;6.30;;;;;;;15.95;93.22;101616.34;4953188;28;20031;-92
2023/05/21 06:36:28;;;;;;;7.93;5.63;;;;;;;16.29;90.96;101638.13;4952716;28;20443;-92
2023/05/21 06:38:57;;;;;;;7.50;6.20;;;;;;;16.24;90.77;101648.97;4951575;28;20317;-91
2023/05/21 06:41:31;;;;;;;7.07;5.60;;;;;;;16.01;90.32;101626.84;4951320;28;20089;-91
2023/05/21 06:44:05;;;;;;;6.05;5.47;;;;;;;16.20;92.08;101643.31;4952963;28;20043;-92
2023/05/21 06:46:31;;;;;;;11.65;5.90;;;;;;;16.24;91.04;101615.72;4952411;28;20033;-92
2023/05/21 06:48:56;;;;;;;9.23;6.30;;;;;;;16.53;90.43;101617.72;4952750;28;20106;-91
2023/05/21 06:51:27;;;;;;;7.28;5.90;;;;;;;16.71;87.68;101627.91;4952509;28;20087;-91
2023/05/21 06:53:52;;;;;;;7.60;5.97;;;;;;;16.62;87.06;101624.97;4951619;29;20038;-91
2023/05/21 06:56:20;;;;;;;8.97;5.80;;;;;;;16.54;88.12;101612.03;4952611;28;20549;-90
2023/05/21 06:58:46;;;;;;;9.77;6.05;;;;;;;16.85;89.43;101635.41;4951615;28;20034;-92
2023/05/21 07:01:11;;;;;;;9.67;6.53;;;;;;;16.95;87.01;101628.03;4952748;28;20019;-91
2023/05/21 07:03:36;;;;;;;9.80;6.63;;;;;;;17.02;86.07;101625.03;4951563;29;20015;-91
2023/05/21 07:06:02;;;;;;;9.20;6.72;;;;;;;17.03;86.95;101615.00;4952057;28;20023;-91
2023/05/21 07:08:27;;;;;;;11.27;6.37;;;;;;;17.12;86.16;101623.34;4951505;28;20510;-92
2023/05/21 07:11:27;;;;;;;8.87;6.17;;;;;;;17.25;85.92;101607.22;4955755;28;20743;-91
2023/05/21 07:14:02;;;;;;;9.38;6.38;;;;;;;17.45;84.76;101604.63;4954025;28;20372;-91
2023/05/21 07:16:28;;;;;;;6.70;5.97;;;;;;;17.45;84.30;101604.63;4956068;28;20038;-92
2023/05/21 07:19:10;;;;;;;6.93;6.00;;;;;;;17.62;84.91;101588.75;4956176;28;20023;-91
2023/05/21 07:21:43;;;;;;;7.78;6.40;;;;;;;17.98;83.30;101606.56;4956220;28;20031;-91
2023/05/21 07:24:17;;;;;;;11.27;6.30;;;;;;;18.08;82.65;101598.28;4954947;29;20035;-91
2023/05/21 07:26:43;;;;;;;10.35;6.70;;;;;;;18.14;81.23;101601.75;4955726;28;20095;-90
2023/05/21 07:29:47;;;;;;;7.63;6.63;;;;;;;18.20;81.40;101597.88;4955936;28;20516;-91
2023/05/21 07:32:12;;;;;;;8.57;6.63;;;;;;;18.38;79.09;101611.75;4938673;29;20035;-91
2023/05/21 07:34:40;;;;;;;9.93;7.03;;;;;;;18.41;79.25;101601.13;4956223;28;20420;-91
2023/05/21 07:37:09;;;;;;;8.63;7.10;;;;;;;18.69;78.61;101605.91;4955617;28;20293;-91
2023/05/21 07:39:43;;;;;;;9.40;6.50;;;;;;;18.80;77.81;101591.09;4955846;29;20023;-91
2023/05/21 07:42:26;;;;;;;8.38;6.57;;;;;;;19.00;78.41;101619.03;4956792;28;20034;-91
2023/05/21 07:45:09;;;;;;;8.07;6.43;;;;;;;18.99;77.12;101601.94;4938283;29;20031;-91
2023/05/21 07:47:34;;;;;;;7.30;6.25;;;;;;;19.08;74.48;101591.22;4955148;29;20037;-91
2023/05/21 07:50:00;;;;;;;8.40;7.20;;;;;;;19.28;74.96;101608.25;4955427;28;20027;-91
2023/05/21 07:52:48;;;;;;;9.68;7.13;;;;;;;19.35;74.09;101608.69;4955829;29;20039;-91
2023/05/21 07:55:26;;;;;;;9.73;7.00;;;;;;;19.39;74.96;101596.09;4938132;29;20032;-91
2023/05/21 07:57:58;;;;;;;9.18;7.15;;;;;;;19.05;73.58;101599.94;4955225;28;20059;-91
2023/05/21 08:00:23;;;;;;;11.88;7.07;;;;;;;19.07;75.34;101605.88;4955446;29;20031;-90
2023/05/21 08:03:29;;;;;;;9.63;7.43;;;;;;;19.39;74.67;101611.63;4955586;28;20035;-90
2023/05/21 08:05:55;;;;;;;12.23;7.35;;;;;;;19.44;71.62;101615.03;4937746;29;20495;-91
2023/05/21 08:08:21;;;;;;;9.70;7.72;;;;;;;19.54;73.33;101602.38;4938002;29;20062;-91
2023/05/21 08:10:46;;;;;;;14.20;7.22;;;;;;;19.90;72.55;101610.69;4955307;28;20023;-90
2023/05/21 08:13:18;;;;;;;11.83;7.93;;;;;;;19.82;72.01;101582.25;4955216;29;20478;-91
2023/05/21 08:15:44;;;;;;;9.18;6.65;;;;;;;19.97;71.93;101602.94;4954582;28;20027;-91
2023/05/21 08:18:10;;;;;;;12.73;7.90;;;;;;;20.00;70.09;101597.97;4988661;23;20054;-92
2023/05/21 08:21:01;;;;;;;7.90;7.10;;;;;;;20.35;72.61;101610.03;4993610;28;20415;-92
2023/05/21 08:23:27;;;;;;;10.77;7.10;;;;;;;20.40;69.70;101603.66;4976592;28;20030;-92
2023/05/21 08:25:52;;;;;;;9.60;7.90;;;;;;;20.25;67.98;101594.72;4976089;28;20095;-92
2023/05/21 08:28:20;;;;;;;10.80;7.57;;;;;;;20.03;69.51;101581.06;4981659;23;20401;-91
2023/05/21 08:30:46;;;;;;;8.70;7.55;;;;;;;20.11;71.27;101583.88;4954871;29;20033;-91
2023/05/21 08:33:20;;;;;;;10.43;8.37;;;;;;;20.07;70.94;101588.31;4954857;29;20035;-92
2023/05/21 08:35:45;;;;;;;9.43;8.38;;;;;;;19.99;70.29;101588.22;4954385;29;20490;-91
2023/05/21 08:38:10;;;;;;;11.40;7.87;;;;;;;19.91;70.22;101573.41;4954589;29;20059;-91
2023/05/21 08:40:44;;;;;;;11.20;7.60;;;;;;;19.91;71.01;101579.66;4955039;29;20106;-92
2023/05/21 08:43:28;;;;;;;10.30;7.97;;;;;;;20.11;71.56;101581.16;4955329;28;20031;-92
2023/05/21 08:46:31;;;;;;;10.73;8.63;;;;;;;20.34;70.94;101589.38;4955013;29;20030;-92
2023/05/21 08:48:58;;;;;;;9.60;7.70;;;;;;;20.42;69.81;101571.50;4954749;29;20106;-91
2023/05/21 08:51:23;;;;;;;11.18;7.82;;;;;;;20.55;69.28;101591.66;4954251;29;20019;-91
2023/05/21 08:53:49;;;;;;;11.77;7.70;;;;;;;20.48;69.46;101567.56;4954707;29;20031;-91
2023/05/21 08:56:18;;;;;;;11.77;8.95;;;;;;;20.69;70.32;101597.06;4954029;29;20110;-92
2023/05/21 08:58:47;;;;;;;10.68;8.18;;;;;;;20.62;70.51;101575.69;4992829;23;20038;-92
2023/05/21 09:01:13;;;;;;;13.70;8.43;;;;;;;20.73;69.78;101573.50;4975663;28;20645;-93
2023/05/21 09:03:39;;;;;;;9.60;7.63;;;;;;;20.88;68.55;101573.19;4992966;28;20110;-93
2023/05/21 09:06:21;;;;;;;10.80;8.45;;;;;;;20.77;67.15;101569.09;4992867;28;20661;-94
2023/05/21 09:08:55;;;;;;;12.45;8.63;;;;;;;20.91;69.33;101576.41;4992991;28;20109;-94
2023/05/21 09:11:20;;;;;;;10.90;8.02;;;;;;;20.79;68.48;101560.63;4976289;28;20069;-94
2023/05/21 09:13:46;;;;;;;15.90;8.73;;;;;;;21.07;68.11;101568.66;4975417;28;20090;-93
2023/05/21 09:16:12;;;;;;;10.23;9.07;;;;;;;21.09;65.98;101572.66;4992308;28;20030;-93
2023/05/21 09:18:37;;;;;;;16.23;8.53;;;;;;;21.25;67.05;101566.84;4993129;28;20030;-93
2023/05/21 09:21:22;;;;;;;12.60;9.10;;;;;;;21.51;67.82;101583.31;4993643;28;20022;-93
2023/05/21 09:23:54;;;;;;;10.30;8.60;;;;;;;21.55;66.92;101583.50;5000921;28;20277;-93
2023/05/21 09:26:35;;;;;;;14.38;9.15;;;;;;;21.53;65.12;101575.63;4993041;28;20027;-94
2023/05/21 09:29:00;;;;;;;13.85;8.93;;;;;;;21.45;64.29;101560.03;4976021;28;20050;-93
2023/05/21 09:31:28;;;;;;;12.27;9.00;;;;;;;21.63;65.92;101586.28;4993737;28;20026;-94
2023/05/21 09:33:56;;;;;;;11.98;8.85;;;;;;;21.66;65.66;101567.69;4978295;28;20027;-93
2023/05/21 09:36:33;;;;;;;10.23;9.13;;;;;;;21.77;65.72;101569.00;4994618;28;20039;-93
2023/05/21 09:38:59;;;;;;;11.75;9.18;;;;;;;21.58;66.06;101571.97;4994888;28;20070;-94
2023/05/21 09:41:35;;;;;;;13.30;9.13;;;;;;;21.47;66.40;101574.94;4998628;28;20045;-94
2023/05/21 09:44:01;;;;;;;12.80;9.10;;;;;;;21.32;66.16;101557.09;5015347;28;20014;-93
2023/05/21 09:46:27;;;;;;;13.52;9.20;;;;;;;21.42;66.93;101558.75;4997931;28;20094;-93
2023/05/21 09:48:53;;;;;;;12.73;9.20;;;;;;;21.61;65.95;101557.72;4997090;28;20029;-93
2023/05/21 09:51:20;;;;;;;10.20;8.50;;;;;;;21.93;65.55;101551.06;5012712;28;20038;-93
2023/05/21 09:53:57;;;;;;;13.90;9.10;;;;;;;22.20;64.88;101557.38;4993767;28;20022;-92
2023/05/21 09:56:33;;;;;;;16.40;9.93;;;;;;;22.45;63.35;101559.66;5012363;28;20049;-94
2023/05/21 09:59:14;;;;;;;12.60;9.40;;;;;;;22.22;63.27;101555.13;4995407;28;20026;-94
2023/05/21 10:01:42;;;;;;;15.13;9.30;;;;;;;22.22;63.80;101554.31;4993536;28;20297;-94
2023/05/21 10:04:08;;;;;;;10.10;8.43;;;;;;;22.55;64.19;101570.25;4992711;28;20034;-94
2023/05/21 10:06:41;;;;;;;14.48;9.05;;;;;;;22.89;64.38;101552.25;4992692;28;20130;-95
2023/05/21 10:09:09;;;;;;;11.38;9.05;;;;;;;23.34;60.67;101570.16;4992668;28;20582;-94
2023/05/21 10:11:36;;;;;;;13.30;9.68;;;;;;;23.44;58.66;101538.91;4992330;28;20509;-93
2023/05/21 10:14:06;;;;;;;12.90;9.63;;;;;;;23.49;57.47;101546.13;4993136;28;20424;-93
2023/05/21 10:16:33;;;;;;;12.35;9.93;;;;;;;23.38;57.71;101541.00;4992411;28;20027;-93
2023/05/21 10:18:59;;;;;;;14.93;11.07;;;;;;;23.03;57.46;101546.56;4993548;28;20030;-93
2023/05/21 10:21:25;;;;;;;12.30;9.53;;;;;;;23.27;59.82;101540.59;4993589;28;20042;-95
2023/05/21 10:23:52;;;;;;;12.13;9.30;;;;;;;23.44;59.31;101528.75;4993010;28;20891;-94
2023/05/21 10:26:20;;;;;;;12.80;9.65;;;;;;;23.58;58.02;101561.34;4974629;28;20058;-93
2023/05/21 10:28:45;;;;;;;12.52;9.65;;;;;;;23.44;56.55;101547.91;4993830;28;20042;-92
2023/05/21 10:31:12;;;;;;;14.60;10.27;;;;;;;23.29;57.25;101554.69;4993663;28;20019;-93
2023/05/21 10:33:37;;;;;;;14.17;10.37;;;;;;;23.06;58.50;101545.91;5000570;28;20018;-92
2023/05/21 10:36:03;;;;;;;11.90;9.17;;;;;;;23.08;59.84;101531.94;4997794;28;20292;-94
2023/05/21 10:38:30;;;;;;;13.35;9.57;;;;;;;23.06;60.02;101526.00;4998789;28;20030;-93
2023/05/21 10:40:57;;;;;;;11.68;10.50;;;;;;;23.11;59.53;101515.69;4998972;28;20026;-94
2023/05/21 10:43:35;;;;;;;12.40;10.15;;;;;;;23.40;60.28;101533.28;4999591;28;20031;-95
2023/05/21 10:46:28;;;;;;;11.57;9.23;;;;;;;23.85;59.98;101522.91;5003107;28;20374;-93
2023/05/21 10:49:15;;;;;;;13.93;10.20;;;;;;;24.30;58.05;101524.22;5004094;28;20022;-94
2023/05/21 10:51:56;;;;;;;13.70;10.50;;;;;;;24.61;55.03;101520.22;5002128;28;20293;-94
2023/05/21 10:54:53;;;;;;;18.30;11.20;;;;;;;24.34;54.66;101525.94;5001828;28;20042;-93
2023/05/21 10:57:47;;;;;;;14.00;11.02;;;;;;;24.30;56.60;101518.75;5001192;28;20084;-94
2023/05/21 11:00:16;;;;;;;16.20;11.70;;;;;;;24.33;54.91;101505.16;4999811;28;20101;-95
2023/05/21 11:02:41;;;;;;;16.02;11.45;;;;;;;24.45;52.44;101504.41;4998168;28;20497;-95
2023/05/21 11:05:07;;;;;;;15.07;11.52;;;;;;;24.22;54.57;101497.69;4996173;28;20040;-94
2023/05/21 11:07:52;;;;;;;15.77;11.60;;;;;;;24.43;54.53;101505.91;4995206;28;20046;-93
2023/05/21 11:10:46;;;;;;;13.40;12.00;;;;;;;24.17;54.71;101480.34;4995510;28;20389;-94
2023/05/21 11:13:14;;;;;;;16.35;11.90;;;;;;;24.05;53.87;101485.75;4995446;28;20057;-93
2023/05/21 11:15:57;;;;;;;15.20;11.90;;;;;;;24.28;55.39;101496.38;4994887;28;20033;-94
2023/05/21 11:18:45;;;;;;;15.80;12.57;;;;;;;24.33;55.38;101490.69;4995082;28;20077;-93
2023/05/21 11:21:14;;;;;;;18.07;12.17;;;;;;;24.22;52.96;101479.34;4977467;28;20125;-94
2023/05/21 11:23:52;;;;;;;17.93;12.63;;;;;;;23.99;53.91;101476.94;4977638;28;20286;-94
2023/05/21 11:26:21;;;;;;;16.45;12.38;;;;;;;23.70;56.08;101453.97;4994670;28;20062;-93
2023/05/21 11:28:50;;;;;;;17.13;12.85;;;;;;;23.83;55.20;101471.22;4995059;28;20026;-94